sensor_id;sensor_type;location;lat;lon;timestamp;P1;durP1;ratioP1;P2;durP2;ratioP2
63536;SDS011;49686;51.880;5.632;2023-11-22T00:00:19;17.58;;;10.10;;
63536;SDS011;49686;51.880;5.632;2023-11-22T00:02:46;18.30;;;9.55;;
63536;SDS011;49686;51.880;5.632;2023-11-22T00:05:13;16.42;;;8.63;;
63536;SDS011;49686;51.880;5.632;2023-11-22T00:07:40;18.00;;;9.43;;
63536;SDS011;49686;51.880;5.632;2023-11-22T00:10:07;17.95;;;9.95;;
63536;SDS011;49686;51.880;5.632;2023-11-22T00:12:34;16.42;;;9.10;;
63536;SDS011;49686;51.880;5.632;2023-11-22T00:15:03;15.82;;;9.32;;
63536;SDS011;49686;51.880;5.632;2023-11-22T00:19:57;19.05;;;9.73;;
63536;SDS011;49686;51.880;5.632;2023-11-22T00:22:24;18.30;;;9.25;;
63536;SDS011;49686;51.880;5.632;2023-11-22T00:24:51;21.80;;;10.60;;
63536;SDS011;49686;51.880;5.632;2023-11-22T00:27:18;16.23;;;9.55;;
63536;SDS011;49686;51.880;5.632;2023-11-22T00:29:45;19.33;;;10.15;;
63536;SDS011;49686;51.880;5.632;2023-11-22T00:32:13;18.23;;;9.23;;
63536;SDS011;49686;51.880;5.632;2023-11-22T00:34:40;17.75;;;9.82;;
63536;SDS011;49686;51.880;5.632;2023-11-22T00:37:07;19.45;;;10.23;;
63536;SDS011;49686;51.880;5.632;2023-11-22T00:39:33;18.85;;;10.20;;
63536;SDS011;49686;51.880;5.632;2023-11-22T00:42:00;17.02;;;9.35;;
63536;SDS011;49686;51.880;5.632;2023-11-22T00:44:29;21.85;;;10.60;;
63536;SDS011;49686;51.880;5.632;2023-11-22T00:46:55;19.40;;;10.85;;
63536;SDS011;49686;51.880;5.632;2023-11-22T00:49:24;15.48;;;8.05;;
63536;SDS011;49686;51.880;5.632;2023-11-22T00:51:51;17.80;;;9.98;;
63536;SDS011;49686;51.880;5.632;2023-11-22T00:54:18;22.30;;;10.10;;
63536;SDS011;49686;51.880;5.632;2023-11-22T00:56:44;19.05;;;10.77;;
63536;SDS011;49686;51.880;5.632;2023-11-22T00:59:11;18.58;;;11.05;;
63536;SDS011;49686;51.880;5.632;2023-11-22T01:01:38;16.60;;;9.90;;
63536;SDS011;49686;51.880;5.632;2023-11-22T01:04:05;18.30;;;10.00;;
63536;SDS011;49686;51.880;5.632;2023-11-22T01:06:33;17.08;;;10.02;;
63536;SDS011;49686;51.880;5.632;2023-11-22T01:09:00;18.52;;;9.88;;
63536;SDS011;49686;51.880;5.632;2023-11-22T01:11:27;16.02;;;9.25;;
63536;SDS011;49686;51.880;5.632;2023-11-22T01:13:54;17.52;;;8.73;;
63536;SDS011;49686;51.880;5.632;2023-11-22T01:16:21;18.52;;;9.85;;
63536;SDS011;49686;51.880;5.632;2023-11-22T01:18:48;19.05;;;10.10;;
63536;SDS011;49686;51.880;5.632;2023-11-22T01:21:14;20.05;;;10.23;;
63536;SDS011;49686;51.880;5.632;2023-11-22T01:23:42;17.05;;;10.02;;
63536;SDS011;49686;51.880;5.632;2023-11-22T01:26:09;19.02;;;10.15;;
63536;SDS011;49686;51.880;5.632;2023-11-22T01:28:36;21.45;;;10.77;;
63536;SDS011;49686;51.880;5.632;2023-11-22T01:31:04;21.10;;;10.65;;
63536;SDS011;49686;51.880;5.632;2023-11-22T01:33:31;19.00;;;9.85;;
63536;SDS011;49686;51.880;5.632;2023-11-22T01:35:57;22.40;;;10.50;;
63536;SDS011;49686;51.880;5.632;2023-11-22T01:38:25;16.33;;;8.52;;
63536;SDS011;49686;51.880;5.632;2023-11-22T01:40:53;19.10;;;8.75;;
63536;SDS011;49686;51.880;5.632;2023-11-22T01:43:20;16.55;;;9.43;;
63536;SDS011;49686;51.880;5.632;2023-11-22T01:45:47;18.20;;;9.52;;
63536;SDS011;49686;51.880;5.632;2023-11-22T01:48:14;18.02;;;9.15;;
63536;SDS011;49686;51.880;5.632;2023-11-22T01:50:42;17.50;;;9.73;;
63536;SDS011;49686;51.880;5.632;2023-11-22T01:53:10;17.38;;;9.35;;
63536;SDS011;49686;51.880;5.632;2023-11-22T01:55:38;17.08;;;9.50;;
63536;SDS011;49686;51.880;5.632;2023-11-22T01:58:08;19.87;;;10.10;;
63536;SDS011;49686;51.880;5.632;2023-11-22T02:00:35;16.55;;;8.75;;
63536;SDS011;49686;51.880;5.632;2023-11-22T02:03:09;18.67;;;9.70;;
63536;SDS011;49686;51.880;5.632;2023-11-22T02:05:36;16.30;;;9.32;;
63536;SDS011;49686;51.880;5.632;2023-11-22T02:08:06;17.80;;;8.90;;
63536;SDS011;49686;51.880;5.632;2023-11-22T02:10:34;17.85;;;9.93;;
63536;SDS011;49686;51.880;5.632;2023-11-22T02:13:00;16.17;;;9.27;;
63536;SDS011;49686;51.880;5.632;2023-11-22T02:15:29;15.55;;;7.85;;
63536;SDS011;49686;51.880;5.632;2023-11-22T02:17:56;17.13;;;9.27;;
63536;SDS011;49686;51.880;5.632;2023-11-22T02:20:36;19.20;;;9.48;;
63536;SDS011;49686;51.880;5.632;2023-11-22T02:23:07;18.52;;;9.48;;
63536;SDS011;49686;51.880;5.632;2023-11-22T02:25:34;21.60;;;10.50;;
63536;SDS011;49686;51.880;5.632;2023-11-22T02:28:01;16.13;;;8.52;;
63536;SDS011;49686;51.880;5.632;2023-11-22T02:30:28;17.05;;;8.93;;
63536;SDS011;49686;51.880;5.632;2023-11-22T02:32:55;20.10;;;9.05;;
63536;SDS011;49686;51.880;5.632;2023-11-22T02:35:21;18.02;;;9.18;;
63536;SDS011;49686;51.880;5.632;2023-11-22T02:37:48;18.52;;;9.63;;
63536;SDS011;49686;51.880;5.632;2023-11-22T02:40:17;13.80;;;8.00;;
63536;SDS011;49686;51.880;5.632;2023-11-22T02:42:45;19.27;;;9.23;;
63536;SDS011;49686;51.880;5.632;2023-11-22T02:45:12;17.50;;;8.80;;
63536;SDS011;49686;51.880;5.632;2023-11-22T02:47:39;18.38;;;9.20;;
63536;SDS011;49686;51.880;5.632;2023-11-22T02:50:06;19.05;;;9.80;;
63536;SDS011;49686;51.880;5.632;2023-11-22T02:52:33;20.75;;;10.10;;
63536;SDS011;49686;51.880;5.632;2023-11-22T02:55:00;17.35;;;9.07;;
63536;SDS011;49686;51.880;5.632;2023-11-22T02:57:29;17.60;;;9.05;;
63536;SDS011;49686;51.880;5.632;2023-11-22T02:59:55;15.50;;;8.45;;
63536;SDS011;49686;51.880;5.632;2023-11-22T03:02:22;19.55;;;9.55;;
63536;SDS011;49686;51.880;5.632;2023-11-22T03:04:49;18.75;;;9.57;;
63536;SDS011;49686;51.880;5.632;2023-11-22T03:07:16;20.48;;;10.18;;
63536;SDS011;49686;51.880;5.632;2023-11-22T03:09:43;21.77;;;9.82;;
63536;SDS011;49686;51.880;5.632;2023-11-22T03:12:10;18.65;;;10.27;;
63536;SDS011;49686;51.880;5.632;2023-11-22T03:14:39;18.90;;;9.50;;
63536;SDS011;49686;51.880;5.632;2023-11-22T03:17:07;19.55;;;9.80;;
63536;SDS011;49686;51.880;5.632;2023-11-22T03:19:34;17.30;;;9.55;;
63536;SDS011;49686;51.880;5.632;2023-11-22T03:22:01;18.67;;;9.10;;
63536;SDS011;49686;51.880;5.632;2023-11-22T03:24:28;18.45;;;9.25;;
63536;SDS011;49686;51.880;5.632;2023-11-22T03:26:55;18.35;;;9.23;;
63536;SDS011;49686;51.880;5.632;2023-11-22T03:29:22;16.38;;;9.20;;
63536;SDS011;49686;51.880;5.632;2023-11-22T03:31:50;17.38;;;7.90;;
63536;SDS011;49686;51.880;5.632;2023-11-22T03:34:17;22.75;;;9.63;;
63536;SDS011;49686;51.880;5.632;2023-11-22T03:36:45;17.85;;;9.32;;
63536;SDS011;49686;51.880;5.632;2023-11-22T03:39:12;19.25;;;9.55;;
63536;SDS011;49686;51.880;5.632;2023-11-22T03:41:38;19.20;;;9.48;;
63536;SDS011;49686;51.880;5.632;2023-11-22T03:44:05;23.83;;;10.13;;
63536;SDS011;49686;51.880;5.632;2023-11-22T03:46:32;17.95;;;8.10;;
63536;SDS011;49686;51.880;5.632;2023-11-22T03:49:01;19.02;;;9.38;;
63536;SDS011;49686;51.880;5.632;2023-11-22T03:51:27;20.23;;;10.15;;
63536;SDS011;49686;51.880;5.632;2023-11-22T03:53:54;20.02;;;9.65;;
63536;SDS011;49686;51.880;5.632;2023-11-22T03:56:21;23.02;;;10.55;;
63536;SDS011;49686;51.880;5.632;2023-11-22T03:58:48;19.17;;;9.60;;
63536;SDS011;49686;51.880;5.632;2023-11-22T04:01:15;19.88;;;9.98;;
63536;SDS011;49686;51.880;5.632;2023-11-22T04:03:41;23.05;;;10.55;;
63536;SDS011;49686;51.880;5.632;2023-11-22T04:06:10;20.02;;;9.68;;
63536;SDS011;49686;51.880;5.632;2023-11-22T04:08:37;19.15;;;9.48;;
63536;SDS011;49686;51.880;5.632;2023-11-22T04:11:04;22.00;;;9.38;;
63536;SDS011;49686;51.880;5.632;2023-11-22T04:13:31;20.30;;;9.65;;
63536;SDS011;49686;51.880;5.632;2023-11-22T04:15:58;18.95;;;9.98;;
63536;SDS011;49686;51.880;5.632;2023-11-22T04:18:25;18.90;;;9.32;;
63536;SDS011;49686;51.880;5.632;2023-11-22T04:20:54;18.63;;;9.35;;
63536;SDS011;49686;51.880;5.632;2023-11-22T04:23:22;21.30;;;10.02;;
63536;SDS011;49686;51.880;5.632;2023-11-22T04:25:49;22.10;;;10.20;;
63536;SDS011;49686;51.880;5.632;2023-11-22T04:28:15;18.63;;;8.90;;
63536;SDS011;49686;51.880;5.632;2023-11-22T04:30:42;18.05;;;9.63;;
63536;SDS011;49686;51.880;5.632;2023-11-22T04:33:09;20.30;;;10.45;;
63536;SDS011;49686;51.880;5.632;2023-11-22T04:35:36;21.98;;;10.45;;
63536;SDS011;49686;51.880;5.632;2023-11-22T04:38:03;23.58;;;11.18;;
63536;SDS011;49686;51.880;5.632;2023-11-22T04:40:31;21.25;;;10.18;;
63536;SDS011;49686;51.880;5.632;2023-11-22T04:42:58;19.55;;;10.18;;
63536;SDS011;49686;51.880;5.632;2023-11-22T04:45:25;20.23;;;9.63;;
63536;SDS011;49686;51.880;5.632;2023-11-22T04:47:52;21.13;;;9.32;;
63536;SDS011;49686;51.880;5.632;2023-11-22T04:50:19;20.98;;;9.85;;
63536;SDS011;49686;51.880;5.632;2023-11-22T04:52:46;22.15;;;10.40;;
63536;SDS011;49686;51.880;5.632;2023-11-22T04:55:13;19.42;;;9.68;;
63536;SDS011;49686;51.880;5.632;2023-11-22T04:57:41;21.05;;;10.20;;
63536;SDS011;49686;51.880;5.632;2023-11-22T05:00:08;20.58;;;9.60;;
63536;SDS011;49686;51.880;5.632;2023-11-22T05:02:36;18.10;;;9.23;;
63536;SDS011;49686;51.880;5.632;2023-11-22T05:05:03;20.85;;;9.90;;
63536;SDS011;49686;51.880;5.632;2023-11-22T05:07:30;20.92;;;9.82;;
63536;SDS011;49686;51.880;5.632;2023-11-22T05:09:57;22.08;;;9.18;;
63536;SDS011;49686;51.880;5.632;2023-11-22T05:12:24;20.38;;;9.25;;
63536;SDS011;49686;51.880;5.632;2023-11-22T05:14:52;22.05;;;9.70;;
63536;SDS011;49686;51.880;5.632;2023-11-22T05:17:19;21.45;;;10.52;;
63536;SDS011;49686;51.880;5.632;2023-11-22T05:19:46;21.00;;;9.27;;
63536;SDS011;49686;51.880;5.632;2023-11-22T05:22:13;20.58;;;9.55;;
63536;SDS011;49686;51.880;5.632;2023-11-22T05:24:40;20.05;;;9.23;;
63536;SDS011;49686;51.880;5.632;2023-11-22T05:27:07;22.83;;;9.75;;
63536;SDS011;49686;51.880;5.632;2023-11-22T05:29:34;22.92;;;9.98;;
63536;SDS011;49686;51.880;5.632;2023-11-22T05:32:14;23.10;;;9.13;;
63536;SDS011;49686;51.880;5.632;2023-11-22T05:34:40;21.25;;;10.25;;
63536;SDS011;49686;51.880;5.632;2023-11-22T05:37:07;24.60;;;9.60;;
63536;SDS011;49686;51.880;5.632;2023-11-22T05:39:34;22.40;;;9.02;;
63536;SDS011;49686;51.880;5.632;2023-11-22T05:42:02;19.40;;;9.77;;
63536;SDS011;49686;51.880;5.632;2023-11-22T05:44:29;25.05;;;10.82;;
63536;SDS011;49686;51.880;5.632;2023-11-22T05:46:56;21.95;;;10.45;;
63536;SDS011;49686;51.880;5.632;2023-11-22T05:49:24;24.27;;;10.90;;
63536;SDS011;49686;51.880;5.632;2023-11-22T05:51:51;26.98;;;10.85;;
63536;SDS011;49686;51.880;5.632;2023-11-22T05:54:18;23.15;;;10.50;;
63536;SDS011;49686;51.880;5.632;2023-11-22T05:56:45;23.98;;;10.50;;
63536;SDS011;49686;51.880;5.632;2023-11-22T05:59:12;24.23;;;10.73;;
63536;SDS011;49686;51.880;5.632;2023-11-22T06:01:39;24.65;;;10.80;;
63536;SDS011;49686;51.880;5.632;2023-11-22T06:04:06;25.02;;;11.05;;
63536;SDS011;49686;51.880;5.632;2023-11-22T06:06:34;24.38;;;10.77;;
63536;SDS011;49686;51.880;5.632;2023-11-22T06:09:01;22.05;;;10.30;;
63536;SDS011;49686;51.880;5.632;2023-11-22T06:11:28;27.70;;;10.77;;
63536;SDS011;49686;51.880;5.632;2023-11-22T06:13:54;26.08;;;10.82;;
63536;SDS011;49686;51.880;5.632;2023-11-22T06:16:21;24.75;;;11.00;;
63536;SDS011;49686;51.880;5.632;2023-11-22T06:18:48;24.50;;;10.70;;
63536;SDS011;49686;51.880;5.632;2023-11-22T06:21:15;26.13;;;11.52;;
63536;SDS011;49686;51.880;5.632;2023-11-22T06:23:43;23.50;;;10.60;;
63536;SDS011;49686;51.880;5.632;2023-11-22T06:26:10;21.75;;;10.63;;
63536;SDS011;49686;51.880;5.632;2023-11-22T06:28:37;26.77;;;10.80;;
63536;SDS011;49686;51.880;5.632;2023-11-22T06:31:04;27.67;;;10.55;;
63536;SDS011;49686;51.880;5.632;2023-11-22T06:33:31;24.85;;;10.38;;
63536;SDS011;49686;51.880;5.632;2023-11-22T06:35:58;24.20;;;10.60;;
63536;SDS011;49686;51.880;5.632;2023-11-22T06:38:24;23.25;;;10.20;;
63536;SDS011;49686;51.880;5.632;2023-11-22T06:40:53;23.38;;;10.10;;
63536;SDS011;49686;51.880;5.632;2023-11-22T06:43:19;20.70;;;9.37;;
63536;SDS011;49686;51.880;5.632;2023-11-22T06:45:48;19.33;;;8.80;;
63536;SDS011;49686;51.880;5.632;2023-11-22T06:48:14;18.53;;;8.97;;
63536;SDS011;49686;51.880;5.632;2023-11-22T06:50:41;21.58;;;9.68;;
63536;SDS011;49686;51.880;5.632;2023-11-22T06:53:08;21.27;;;9.25;;
63536;SDS011;49686;51.880;5.632;2023-11-22T06:55:35;23.05;;;10.30;;
63536;SDS011;49686;51.880;5.632;2023-11-22T06:58:03;22.17;;;9.20;;
63536;SDS011;49686;51.880;5.632;2023-11-22T07:00:30;24.38;;;10.55;;
63536;SDS011;49686;51.880;5.632;2023-11-22T07:02:57;23.10;;;10.18;;
63536;SDS011;49686;51.880;5.632;2023-11-22T07:05:24;22.90;;;9.95;;
63536;SDS011;49686;51.880;5.632;2023-11-22T07:07:51;21.35;;;9.85;;
63536;SDS011;49686;51.880;5.632;2023-11-22T07:10:18;24.38;;;9.38;;
63536;SDS011;49686;51.880;5.632;2023-11-22T07:12:45;22.80;;;9.75;;
63536;SDS011;49686;51.880;5.632;2023-11-22T07:15:13;22.17;;;10.10;;
63536;SDS011;49686;51.880;5.632;2023-11-22T07:17:40;23.48;;;10.13;;
63536;SDS011;49686;51.880;5.632;2023-11-22T07:20:07;27.33;;;10.93;;
63536;SDS011;49686;51.880;5.632;2023-11-22T07:22:35;25.88;;;11.23;;
63536;SDS011;49686;51.880;5.632;2023-11-22T07:25:02;23.67;;;10.70;;
63536;SDS011;49686;51.880;5.632;2023-11-22T07:27:29;25.60;;;12.57;;
63536;SDS011;49686;51.880;5.632;2023-11-22T07:29:56;24.70;;;11.27;;
63536;SDS011;49686;51.880;5.632;2023-11-22T07:32:24;27.73;;;12.13;;
63536;SDS011;49686;51.880;5.632;2023-11-22T07:34:51;23.58;;;11.73;;
63536;SDS011;49686;51.880;5.632;2023-11-22T07:37:18;26.60;;;10.48;;
63536;SDS011;49686;51.880;5.632;2023-11-22T07:39:45;22.98;;;10.23;;
63536;SDS011;49686;51.880;5.632;2023-11-22T07:42:13;26.15;;;11.48;;
63536;SDS011;49686;51.880;5.632;2023-11-22T07:44:41;24.85;;;10.32;;
63536;SDS011;49686;51.880;5.632;2023-11-22T07:47:08;22.40;;;9.85;;
63536;SDS011;49686;51.880;5.632;2023-11-22T07:49:39;29.30;;;11.70;;
63536;SDS011;49686;51.880;5.632;2023-11-22T07:52:06;26.92;;;10.70;;
63536;SDS011;49686;51.880;5.632;2023-11-22T07:54:33;30.35;;;12.23;;
63536;SDS011;49686;51.880;5.632;2023-11-22T07:57:01;30.67;;;12.68;;
63536;SDS011;49686;51.880;5.632;2023-11-22T07:59:28;38.97;;;13.75;;
63536;SDS011;49686;51.880;5.632;2023-11-22T08:01:55;27.52;;;12.52;;
63536;SDS011;49686;51.880;5.632;2023-11-22T08:04:22;34.38;;;12.75;;
63536;SDS011;49686;51.880;5.632;2023-11-22T08:06:50;23.63;;;10.57;;
63536;SDS011;49686;51.880;5.632;2023-11-22T08:09:17;28.00;;;12.48;;
63536;SDS011;49686;51.880;5.632;2023-11-22T08:11:44;30.42;;;12.60;;
63536;SDS011;49686;51.880;5.632;2023-11-22T08:14:11;28.75;;;11.85;;
63536;SDS011;49686;51.880;5.632;2023-11-22T08:16:37;30.13;;;11.85;;
63536;SDS011;49686;51.880;5.632;2023-11-22T08:19:05;32.72;;;12.73;;
63536;SDS011;49686;51.880;5.632;2023-11-22T08:21:31;35.33;;;12.98;;
63536;SDS011;49686;51.880;5.632;2023-11-22T08:24:00;34.58;;;13.32;;
63536;SDS011;49686;51.880;5.632;2023-11-22T08:26:27;30.48;;;12.73;;
63536;SDS011;49686;51.880;5.632;2023-11-22T08:28:53;30.67;;;12.68;;
63536;SDS011;49686;51.880;5.632;2023-11-22T08:31:20;33.40;;;12.85;;
63536;SDS011;49686;51.880;5.632;2023-11-22T08:33:47;30.10;;;12.63;;
63536;SDS011;49686;51.880;5.632;2023-11-22T08:36:14;28.83;;;12.80;;
63536;SDS011;49686;51.880;5.632;2023-11-22T08:38:41;32.42;;;13.38;;
63536;SDS011;49686;51.880;5.632;2023-11-22T08:41:09;29.60;;;13.23;;
63536;SDS011;49686;51.880;5.632;2023-11-22T08:43:36;31.77;;;13.35;;
63536;SDS011;49686;51.880;5.632;2023-11-22T08:46:03;32.55;;;13.77;;
63536;SDS011;49686;51.880;5.632;2023-11-22T08:48:40;30.30;;;14.15;;
63536;SDS011;49686;51.880;5.632;2023-11-22T08:51:08;33.53;;;13.63;;
63536;SDS011;49686;51.880;5.632;2023-11-22T08:53:35;28.20;;;12.38;;
63536;SDS011;49686;51.880;5.632;2023-11-22T08:56:02;32.25;;;14.00;;
63536;SDS011;49686;51.880;5.632;2023-11-22T08:58:30;26.70;;;12.32;;
63536;SDS011;49686;51.880;5.632;2023-11-22T09:00:58;26.90;;;12.18;;
63536;SDS011;49686;51.880;5.632;2023-11-22T09:03:25;32.92;;;13.95;;
63536;SDS011;49686;51.880;5.632;2023-11-22T09:05:52;32.17;;;14.20;;
63536;SDS011;49686;51.880;5.632;2023-11-22T09:08:19;26.00;;;12.52;;
63536;SDS011;49686;51.880;5.632;2023-11-22T09:10:52;31.70;;;13.05;;
63536;SDS011;49686;51.880;5.632;2023-11-22T09:13:19;33.03;;;14.52;;
63536;SDS011;49686;51.880;5.632;2023-11-22T09:15:47;29.95;;;13.73;;
63536;SDS011;49686;51.880;5.632;2023-11-22T09:18:14;32.13;;;15.00;;
63536;SDS011;49686;51.880;5.632;2023-11-22T09:20:41;36.33;;;15.45;;
63536;SDS011;49686;51.880;5.632;2023-11-22T09:23:08;35.25;;;14.93;;
63536;SDS011;49686;51.880;5.632;2023-11-22T09:25:35;38.67;;;15.23;;
63536;SDS011;49686;51.880;5.632;2023-11-22T09:28:02;33.67;;;14.48;;
63536;SDS011;49686;51.880;5.632;2023-11-22T09:30:29;36.22;;;15.70;;
63536;SDS011;49686;51.880;5.632;2023-11-22T09:32:59;33.03;;;15.13;;
63536;SDS011;49686;51.880;5.632;2023-11-22T09:35:26;37.50;;;15.27;;
63536;SDS011;49686;51.880;5.632;2023-11-22T09:37:53;38.38;;;17.00;;
63536;SDS011;49686;51.880;5.632;2023-11-22T09:40:20;36.72;;;16.58;;
63536;SDS011;49686;51.880;5.632;2023-11-22T09:42:49;36.17;;;15.95;;
63536;SDS011;49686;51.880;5.632;2023-11-22T09:45:16;34.00;;;15.20;;
63536;SDS011;49686;51.880;5.632;2023-11-22T09:47:42;33.67;;;15.10;;
63536;SDS011;49686;51.880;5.632;2023-11-22T09:50:11;38.15;;;16.42;;
63536;SDS011;49686;51.880;5.632;2023-11-22T09:52:44;31.67;;;15.52;;
63536;SDS011;49686;51.880;5.632;2023-11-22T09:55:15;34.03;;;15.85;;
63536;SDS011;49686;51.880;5.632;2023-11-22T09:57:42;31.63;;;14.43;;
63536;SDS011;49686;51.880;5.632;2023-11-22T10:00:10;29.40;;;14.15;;
63536;SDS011;49686;51.880;5.632;2023-11-22T10:02:38;29.08;;;14.85;;
63536;SDS011;49686;51.880;5.632;2023-11-22T10:05:06;33.70;;;16.63;;
63536;SDS011;49686;51.880;5.632;2023-11-22T10:07:35;31.92;;;16.40;;
63536;SDS011;49686;51.880;5.632;2023-11-22T10:10:02;32.70;;;15.80;;
63536;SDS011;49686;51.880;5.632;2023-11-22T10:12:29;28.65;;;14.88;;
63536;SDS011;49686;51.880;5.632;2023-11-22T10:15:00;26.48;;;14.45;;
63536;SDS011;49686;51.880;5.632;2023-11-22T10:17:38;31.13;;;15.88;;
63536;SDS011;49686;51.880;5.632;2023-11-22T10:20:07;27.40;;;14.40;;
63536;SDS011;49686;51.880;5.632;2023-11-22T10:22:47;26.17;;;13.13;;
63536;SDS011;49686;51.880;5.632;2023-11-22T10:25:14;33.70;;;16.83;;
63536;SDS011;49686;51.880;5.632;2023-11-22T10:27:41;30.88;;;14.02;;
63536;SDS011;49686;51.880;5.632;2023-11-22T10:30:08;30.05;;;15.00;;
63536;SDS011;49686;51.880;5.632;2023-11-22T10:32:36;32.40;;;15.73;;
63536;SDS011;49686;51.880;5.632;2023-11-22T10:35:03;34.03;;;16.63;;
63536;SDS011;49686;51.880;5.632;2023-11-22T10:37:32;33.72;;;16.65;;
63536;SDS011;49686;51.880;5.632;2023-11-22T10:40:00;34.08;;;16.83;;
63536;SDS011;49686;51.880;5.632;2023-11-22T10:42:27;34.50;;;17.17;;
63536;SDS011;49686;51.880;5.632;2023-11-22T10:44:54;30.70;;;15.15;;
63536;SDS011;49686;51.880;5.632;2023-11-22T10:47:22;33.10;;;17.35;;
63536;SDS011;49686;51.880;5.632;2023-11-22T10:49:50;33.45;;;16.83;;
63536;SDS011;49686;51.880;5.632;2023-11-22T10:52:16;30.90;;;15.65;;
63536;SDS011;49686;51.880;5.632;2023-11-22T10:54:48;37.33;;;17.67;;
63536;SDS011;49686;51.880;5.632;2023-11-22T10:57:23;30.75;;;15.02;;
63536;SDS011;49686;51.880;5.632;2023-11-22T10:59:53;36.58;;;16.88;;
63536;SDS011;49686;51.880;5.632;2023-11-22T11:02:21;35.00;;;16.63;;
63536;SDS011;49686;51.880;5.632;2023-11-22T11:04:51;31.77;;;15.35;;
63536;SDS011;49686;51.880;5.632;2023-11-22T11:07:25;29.63;;;14.95;;
63536;SDS011;49686;51.880;5.632;2023-11-22T11:09:57;29.27;;;13.90;;
63536;SDS011;49686;51.880;5.632;2023-11-22T11:12:39;33.90;;;15.88;;
63536;SDS011;49686;51.880;5.632;2023-11-22T11:15:07;38.33;;;18.10;;
63536;SDS011;49686;51.880;5.632;2023-11-22T11:17:35;34.30;;;16.48;;
63536;SDS011;49686;51.880;5.632;2023-11-22T11:20:03;35.70;;;16.67;;
63536;SDS011;49686;51.880;5.632;2023-11-22T11:22:30;34.03;;;16.70;;
63536;SDS011;49686;51.880;5.632;2023-11-22T11:25:00;34.20;;;16.40;;
63536;SDS011;49686;51.880;5.632;2023-11-22T11:27:27;37.70;;;17.25;;
63536;SDS011;49686;51.880;5.632;2023-11-22T11:29:56;35.05;;;15.93;;
63536;SDS011;49686;51.880;5.632;2023-11-22T11:32:29;38.40;;;17.98;;
63536;SDS011;49686;51.880;5.632;2023-11-22T11:34:57;35.05;;;15.38;;
63536;SDS011;49686;51.880;5.632;2023-11-22T11:37:24;32.33;;;15.45;;
63536;SDS011;49686;51.880;5.632;2023-11-22T11:39:52;36.25;;;16.73;;
63536;SDS011;49686;51.880;5.632;2023-11-22T11:42:18;36.22;;;16.23;;
63536;SDS011;49686;51.880;5.632;2023-11-22T11:44:51;30.48;;;14.57;;
63536;SDS011;49686;51.880;5.632;2023-11-22T11:47:34;29.65;;;14.48;;
63536;SDS011;49686;51.880;5.632;2023-11-22T11:50:02;28.95;;;13.90;;
63536;SDS011;49686;51.880;5.632;2023-11-22T11:52:30;31.23;;;13.90;;
63536;SDS011;49686;51.880;5.632;2023-11-22T11:54:56;25.70;;;12.55;;
63536;SDS011;49686;51.880;5.632;2023-11-22T11:57:24;26.13;;;12.82;;
63536;SDS011;49686;51.880;5.632;2023-11-22T11:59:51;24.27;;;12.38;;
63536;SDS011;49686;51.880;5.632;2023-11-22T12:02:20;21.63;;;11.30;;
63536;SDS011;49686;51.880;5.632;2023-11-22T12:04:47;26.73;;;13.80;;
63536;SDS011;49686;51.880;5.632;2023-11-22T12:07:14;24.30;;;13.10;;
63536;SDS011;49686;51.880;5.632;2023-11-22T12:09:41;26.55;;;13.00;;
63536;SDS011;49686;51.880;5.632;2023-11-22T12:12:08;26.73;;;12.13;;
63536;SDS011;49686;51.880;5.632;2023-11-22T12:14:35;28.48;;;14.02;;
63536;SDS011;49686;51.880;5.632;2023-11-22T12:17:03;30.13;;;14.88;;
63536;SDS011;49686;51.880;5.632;2023-11-22T12:19:31;33.03;;;14.83;;
63536;SDS011;49686;51.880;5.632;2023-11-22T12:21:58;36.53;;;15.52;;
63536;SDS011;49686;51.880;5.632;2023-11-22T12:24:25;28.70;;;13.07;;
63536;SDS011;49686;51.880;5.632;2023-11-22T12:26:52;30.38;;;13.85;;
63536;SDS011;49686;51.880;5.632;2023-11-22T12:29:23;32.70;;;14.98;;
63536;SDS011;49686;51.880;5.632;2023-11-22T12:31:50;30.33;;;13.70;;
63536;SDS011;49686;51.880;5.632;2023-11-22T12:34:20;29.95;;;12.90;;
63536;SDS011;49686;51.880;5.632;2023-11-22T12:36:51;38.22;;;16.50;;
63536;SDS011;49686;51.880;5.632;2023-11-22T12:39:21;36.28;;;15.07;;
63536;SDS011;49686;51.880;5.632;2023-11-22T12:41:50;39.33;;;15.75;;
63536;SDS011;49686;51.880;5.632;2023-11-22T12:44:31;37.42;;;15.98;;
63536;SDS011;49686;51.880;5.632;2023-11-22T12:47:18;40.95;;;16.60;;
63536;SDS011;49686;51.880;5.632;2023-11-22T12:49:57;42.80;;;16.90;;
63536;SDS011;49686;51.880;5.632;2023-11-22T12:52:27;35.55;;;16.13;;
63536;SDS011;49686;51.880;5.632;2023-11-22T12:54:54;31.92;;;13.88;;
63536;SDS011;49686;51.880;5.632;2023-11-22T12:57:20;39.85;;;16.88;;
63536;SDS011;49686;51.880;5.632;2023-11-22T12:59:47;43.45;;;17.92;;
63536;SDS011;49686;51.880;5.632;2023-11-22T13:02:14;39.90;;;16.52;;
63536;SDS011;49686;51.880;5.632;2023-11-22T13:04:41;47.80;;;20.63;;
63536;SDS011;49686;51.880;5.632;2023-11-22T13:07:09;33.95;;;15.13;;
63536;SDS011;49686;51.880;5.632;2023-11-22T13:09:37;41.35;;;17.20;;
63536;SDS011;49686;51.880;5.632;2023-11-22T13:12:04;44.35;;;18.60;;
63536;SDS011;49686;51.880;5.632;2023-11-22T13:14:31;45.97;;;18.85;;
63536;SDS011;49686;51.880;5.632;2023-11-22T13:16:58;44.50;;;19.23;;
63536;SDS011;49686;51.880;5.632;2023-11-22T13:19:24;36.67;;;15.90;;
63536;SDS011;49686;51.880;5.632;2023-11-22T13:21:51;36.80;;;17.13;;
63536;SDS011;49686;51.880;5.632;2023-11-22T13:24:18;35.78;;;16.17;;
63536;SDS011;49686;51.880;5.632;2023-11-22T13:26:46;34.13;;;15.82;;
63536;SDS011;49686;51.880;5.632;2023-11-22T13:29:13;35.00;;;15.43;;
63536;SDS011;49686;51.880;5.632;2023-11-22T13:31:40;35.42;;;16.67;;
63536;SDS011;49686;51.880;5.632;2023-11-22T13:34:07;37.10;;;16.98;;
63536;SDS011;49686;51.880;5.632;2023-11-22T13:36:34;37.70;;;17.67;;
63536;SDS011;49686;51.880;5.632;2023-11-22T13:39:01;34.63;;;16.05;;
63536;SDS011;49686;51.880;5.632;2023-11-22T13:41:28;32.42;;;15.30;;
63536;SDS011;49686;51.880;5.632;2023-11-22T13:43:56;32.63;;;15.90;;
63536;SDS011;49686;51.880;5.632;2023-11-22T13:46:23;28.17;;;13.00;;
63536;SDS011;49686;51.880;5.632;2023-11-22T13:48:50;33.50;;;15.70;;
63536;SDS011;49686;51.880;5.632;2023-11-22T13:51:16;28.70;;;13.40;;
63536;SDS011;49686;51.880;5.632;2023-11-22T13:53:43;31.85;;;14.52;;
63536;SDS011;49686;51.880;5.632;2023-11-22T13:56:10;29.38;;;12.68;;
63536;SDS011;49686;51.880;5.632;2023-11-22T13:58:38;34.08;;;15.13;;
63536;SDS011;49686;51.880;5.632;2023-11-22T14:01:07;33.85;;;14.90;;
63536;SDS011;49686;51.880;5.632;2023-11-22T14:03:33;33.00;;;14.65;;
63536;SDS011;49686;51.880;5.632;2023-11-22T14:06:00;28.27;;;12.52;;
63536;SDS011;49686;51.880;5.632;2023-11-22T14:08:27;32.90;;;14.48;;
63536;SDS011;49686;51.880;5.632;2023-11-22T14:10:54;34.50;;;14.73;;
63536;SDS011;49686;51.880;5.632;2023-11-22T14:13:21;36.95;;;14.48;;
63536;SDS011;49686;51.880;5.632;2023-11-22T14:15:48;33.63;;;14.40;;
63536;SDS011;49686;51.880;5.632;2023-11-22T14:18:16;31.77;;;12.70;;
63536;SDS011;49686;51.880;5.632;2023-11-22T14:20:43;29.80;;;13.23;;
63536;SDS011;49686;51.880;5.632;2023-11-22T14:23:10;28.33;;;12.10;;
63536;SDS011;49686;51.880;5.632;2023-11-22T14:25:37;34.40;;;15.35;;
63536;SDS011;49686;51.880;5.632;2023-11-22T14:28:07;32.03;;;13.48;;
63536;SDS011;49686;51.880;5.632;2023-11-22T14:30:34;33.60;;;14.80;;